Time;durP1;ratioP1;P1;durP2;ratioP2;P2;SDS_P1;SDS_P2;PMS_P1;PMS_P2;Temp;Humidity;BMP_temperature;BMP_pressure;BME280_temperature;BME280_humidity;BME280_pressure;Samples;Min_cycle;Max_cycle;Signal;HPM_P1;HPM_P2
2023/09/28 00:01:12;;;;;;;16.83;10.80;;;14.50;99.90;;;;;;5031390;28;20442;-75
2023/09/28 00:03:38;;;;;;;17.73;11.60;;;14.40;99.90;;;;;;5031483;28;20456;-75
2023/09/28 00:06:05;;;;;;;14.87;11.33;;;14.30;99.90;;;;;;5031734;28;20486;-75
2023/09/28 00:08:32;;;;;;;19.20;10.83;;;14.30;99.90;;;;;;5031445;28;20285;-74
2023/09/28 00:10:59;;;;;;;14.67;11.17;;;14.30;99.90;;;;;;5030799;28;20515;-75
2023/09/28 00:13:25;;;;;;;17.93;11.93;;;14.30;99.90;;;;;;5030971;28;20480;-74
2023/09/28 00:15:51;;;;;;;16.73;11.03;;;14.30;99.90;;;;;;5030913;28;20478;-75
2023/09/28 00:18:19;;;;;;;14.13;11.17;;;14.30;99.90;;;;;;5031112;28;20454;-75
2023/09/28 00:20:45;;;;;;;14.53;10.90;;;14.30;99.90;;;;;;5031056;28;20210;-75
2023/09/28 00:23:12;;;;;;;16.07;11.47;;;14.20;99.90;;;;;;5030181;28;20440;-75
2023/09/28 00:25:38;;;;;;;15.00;10.70;;;14.20;99.90;;;;;;5030913;28;20464;-74
2023/09/28 00:28:06;;;;;;;17.40;10.93;;;14.20;99.90;;;;;;5030505;28;20450;-75
2023/09/28 00:30:32;;;;;;;19.70;10.23;;;14.20;99.90;;;;;;5036526;28;21026;-74
2023/09/28 00:32:59;;;;;;;15.30;10.90;;;14.20;99.90;;;;;;5046728;28;20556;-74
2023/09/28 00:35:26;;;;;;;16.23;11.13;;;14.20;99.90;;;;;;5044213;28;20198;-75
2023/09/28 00:37:53;;;;;;;17.87;11.10;;;14.20;99.90;;;;;;5049996;28;21067;-75
2023/09/28 00:40:21;;;;;;;21.03;11.67;;;14.20;99.90;;;;;;5046236;28;20426;-75
2023/09/28 00:42:49;;;;;;;14.57;10.70;;;14.20;99.90;;;;;;5039791;28;20523;-75
2023/09/28 00:45:15;;;;;;;12.20;9.80;;;14.20;99.90;;;;;;5033890;28;20455;-75
2023/09/28 00:47:43;;;;;;;14.73;10.17;;;14.20;99.90;;;;;;5043835;28;20514;-75
2023/09/28 00:50:10;;;;;;;13.17;10.50;;;14.30;99.90;;;;;;5048552;28;20543;-75
2023/09/28 00:52:41;;;;;;;12.63;10.10;;;14.30;99.90;;;;;;5048590;28;20477;-75
2023/09/28 00:55:08;;;;;;;13.07;10.03;;;14.30;99.90;;;;;;5049380;28;20718;-75
2023/09/28 00:57:37;;;;;;;13.33;10.70;;;14.20;99.90;;;;;;5041959;28;20463;-75
2023/09/28 01:00:18;;;;;;;14.10;11.00;;;14.20;99.90;;;;;;5048479;28;20533;-75
2023/09/28 01:02:45;;;;;;;13.70;10.60;;;14.20;99.90;;;;;;5047126;28;20451;-75
2023/09/28 01:05:13;;;;;;;15.60;10.50;;;14.20;99.90;;;;;;5048417;28;20463;-75
2023/09/28 01:07:41;;;;;;;13.17;10.57;;;14.20;99.90;;;;;;5045292;28;20427;-75
2023/09/28 01:10:09;;;;;;;18.37;10.17;;;14.20;99.90;;;;;;5048631;28;20537;-75
2023/09/28 01:12:38;;;;;;;12.97;11.27;;;14.30;99.90;;;;;;5046732;28;20487;-75
2023/09/28 01:15:09;;;;;;;15.93;11.13;;;14.30;99.90;;;;;;5048012;28;20923;-75
2023/09/28 01:17:36;;;;;;;12.60;10.50;;;14.30;99.90;;;;;;5048881;28;20510;-75
2023/09/28 01:20:03;;;;;;;15.83;11.03;;;14.30;99.90;;;;;;5046427;28;20448;-75
2023/09/28 01:22:31;;;;;;;12.53;10.60;;;14.20;99.90;;;;;;5037243;28;20476;-75
2023/09/28 01:24:57;;;;;;;11.80;9.43;;;14.20;99.90;;;;;;5045703;28;20512;-75
2023/09/28 01:27:24;;;;;;;13.13;10.23;;;14.10;99.90;;;;;;5048812;28;20419;-75
2023/09/28 01:29:50;;;;;;;20.80;11.43;;;14.20;99.90;;;;;;5044161;28;20210;-75
2023/09/28 01:32:16;;;;;;;14.57;10.90;;;14.20;99.90;;;;;;5047290;28;20976;-75
2023/09/28 01:34:42;;;;;;;14.07;10.77;;;14.20;99.90;;;;;;5038013;28;20210;-75
2023/09/28 01:37:09;;;;;;;12.43;9.90;;;14.20;99.90;;;;;;5046011;28;20544;-75
2023/09/28 01:39:36;;;;;;;15.60;11.20;;;14.20;99.90;;;;;;5048295;28;20610;-75
2023/09/28 01:42:02;;;;;;;14.00;10.87;;;14.20;99.90;;;;;;5045275;28;20448;-75
2023/09/28 01:44:28;;;;;;;16.33;11.20;;;14.20;99.90;;;;;;5040993;28;20448;-75
2023/09/28 01:46:55;;;;;;;14.20;11.00;;;14.20;99.90;;;;;;5043455;28;20518;-75
2023/09/28 01:49:21;;;;;;;16.00;11.93;;;14.20;99.90;;;;;;5032873;28;20710;-75
2023/09/28 01:51:47;;;;;;;13.23;10.80;;;14.20;99.90;;;;;;5043953;28;20426;-75
2023/09/28 01:54:13;;;;;;;12.67;11.33;;;14.20;99.90;;;;;;5046463;28;20423;-75
2023/09/28 01:56:41;;;;;;;14.57;11.10;;;14.20;99.90;;;;;;5045980;28;20457;-75
2023/09/28 01:59:07;;;;;;;16.13;11.23;;;14.20;99.90;;;;;;5045083;28;20561;-75
2023/09/28 02:01:34;;;;;;;12.97;10.73;;;14.20;99.90;;;;;;5044400;28;20463;-75
2023/09/28 02:04:01;;;;;;;21.83;12.50;;;14.20;99.90;;;;;;5042202;28;20676;-75
2023/09/28 02:06:26;;;;;;;15.90;12.53;;;14.20;99.90;;;;;;5051111;28;20984;-75
2023/09/28 02:08:53;;;;;;;15.10;11.40;;;14.20;99.90;;;;;;5050760;28;20474;-75
2023/09/28 02:11:19;;;;;;;16.57;11.80;;;14.20;99.90;;;;;;5050366;28;20214;-75
2023/09/28 02:13:46;;;;;;;15.17;11.40;;;14.20;99.90;;;;;;5049662;28;20888;-75
2023/09/28 02:16:13;;;;;;;18.33;11.60;;;14.20;99.90;;;;;;5049531;28;20203;-75
2023/09/28 02:18:42;;;;;;;19.00;11.57;;;14.20;99.90;;;;;;5050865;28;20431;-75
2023/09/28 02:21:12;;;;;;;15.13;10.50;;;14.10;99.90;;;;;;5042971;28;20440;-75
2023/09/28 02:23:39;;;;;;;15.20;10.47;;;14.10;99.90;;;;;;5050628;28;20453;-75
2023/09/28 02:26:05;;;;;;;17.53;11.40;;;14.00;99.90;;;;;;5049155;28;20480;-75
2023/09/28 02:28:32;;;;;;;17.60;10.43;;;13.90;99.90;;;;;;5046281;28;20452;-75
2023/09/28 02:31:05;;;;;;;16.30;11.90;;;13.90;99.90;;;;;;5045280;28;20480;-75
2023/09/28 02:33:31;;;;;;;15.73;11.10;;;13.80;99.90;;;;;;5042222;28;20451;-75
2023/09/28 02:35:57;;;;;;;18.07;12.10;;;13.70;99.90;;;;;;5043858;28;20427;-75
2023/09/28 02:38:24;;;;;;;16.03;11.33;;;13.70;99.90;;;;;;5042841;28;20473;-75
2023/09/28 02:40:50;;;;;;;15.20;11.93;;;13.70;99.90;;;;;;5046248;28;20275;-75
2023/09/28 02:43:16;;;;;;;17.13;11.77;;;13.70;99.90;;;;;;5043582;28;20443;-75
2023/09/28 02:45:42;;;;;;;15.70;11.63;;;13.70;99.90;;;;;;5047140;28;20591;-75
2023/09/28 02:48:11;;;;;;;15.27;11.43;;;13.70;99.90;;;;;;5048161;28;20505;-75
2023/09/28 02:50:37;;;;;;;17.20;11.00;;;13.70;99.90;;;;;;5049419;28;20826;-75
2023/09/28 02:53:04;;;;;;;13.77;11.40;;;13.70;99.90;;;;;;5040550;28;20465;-75
2023/09/28 02:55:32;;;;;;;19.00;12.80;;;13.70;99.90;;;;;;5049321;28;20205;-75
2023/09/28 02:57:59;;;;;;;17.03;12.00;;;13.70;99.90;;;;;;5044897;28;20460;-75
2023/09/28 03:00:26;;;;;;;17.03;11.93;;;13.70;99.90;;;;;;5044407;28;20954;-75
2023/09/28 03:02:56;;;;;;;17.23;12.50;;;13.70;99.90;;;;;;5048350;28;20491;-75
2023/09/28 03:05:26;;;;;;;15.73;12.30;;;13.70;99.90;;;;;;5048073;28;20487;-75
2023/09/28 03:07:51;;;;;;;16.23;12.60;;;13.70;99.90;;;;;;5048390;28;20841;-75
2023/09/28 03:10:19;;;;;;;21.10;12.63;;;13.70;99.90;;;;;;5046431;28;20476;-75
2023/09/28 03:12:46;;;;;;;20.70;12.30;;;13.70;99.90;;;;;;5041551;28;20236;-75
2023/09/28 03:15:16;;;;;;;18.97;12.70;;;13.70;99.90;;;;;;5046399;28;20452;-75
2023/09/28 03:17:42;;;;;;;15.73;11.60;;;13.80;99.90;;;;;;5048136;28;21012;-75
2023/09/28 03:20:14;;;;;;;19.40;13.20;;;13.80;99.90;;;;;;5045333;28;20522;-75
2023/09/28 03:22:41;;;;;;;14.43;11.53;;;13.80;99.90;;;;;;5043274;28;20465;-75
2023/09/28 03:25:11;;;;;;;17.13;11.97;;;13.90;99.90;;;;;;5046356;28;20574;-75
2023/09/28 03:27:37;;;;;;;15.10;11.23;;;13.90;99.90;;;;;;5048285;28;20461;-75
2023/09/28 03:30:09;;;;;;;24.30;12.10;;;13.90;99.90;;;;;;5040552;28;21008;-75
2023/09/28 03:32:36;;;;;;;20.10;12.70;;;14.00;99.90;;;;;;5046415;28;20292;-75
2023/09/28 03:35:03;;;;;;;21.97;13.80;;;14.00;99.90;;;;;;5044271;28;20869;-75
2023/09/28 03:37:30;;;;;;;28.50;16.63;;;14.00;99.90;;;;;;5035640;28;20447;-75
2023/09/28 03:40:00;;;;;;;23.27;15.50;;;13.90;99.90;;;;;;5039963;28;20502;-75
2023/09/28 03:42:27;;;;;;;23.53;14.50;;;13.90;99.90;;;;;;5040247;28;20480;-75
2023/09/28 03:44:54;;;;;;;19.00;13.97;;;13.90;99.90;;;;;;5043663;28;20870;-75
2023/09/28 03:47:20;;;;;;;19.47;13.33;;;14.00;99.90;;;;;;5045721;28;20416;-74
2023/09/28 03:49:47;;;;;;;19.00;13.47;;;14.00;99.90;;;;;;5046990;28;20514;-75
2023/09/28 03:52:14;;;;;;;24.37;13.50;;;14.00;99.90;;;;;;5044545;28;20500;-75
2023/09/28 03:54:40;;;;;;;17.03;12.97;;;14.00;99.90;;;;;;5046787;28;20456;-75
2023/09/28 03:57:08;;;;;;;20.03;14.50;;;14.00;99.90;;;;;;5037268;28;20460;-75
2023/09/28 03:59:35;;;;;;;22.97;14.47;;;13.90;99.90;;;;;;5047094;28;20457;-75
2023/09/28 04:02:02;;;;;;;22.73;14.80;;;13.90;99.90;;;;;;5044886;28;20473;-75
2023/09/28 04:04:29;;;;;;;21.80;15.30;;;13.80;99.90;;;;;;5041304;28;20577;-75
2023/09/28 04:06:55;;;;;;;18.33;12.70;;;13.80;99.90;;;;;;5033169;28;20538;-75
2023/09/28 04:09:22;;;;;;;17.80;12.23;;;13.80;99.90;;;;;;5043261;28;20457;-76
2023/09/28 04:11:49;;;;;;;22.00;13.03;;;13.80;99.90;;;;;;5043052;28;20821;-75
2023/09/28 04:14:17;;;;;;;16.87;12.10;;;13.80;99.90;;;;;;5041922;28;20853;-75
2023/09/28 04:16:44;;;;;;;17.40;12.70;;;13.80;99.90;;;;;;5046213;28;20934;-75
2023/09/28 04:19:11;;;;;;;18.50;12.20;;;13.80;99.90;;;;;;5043540;28;20460;-75
2023/09/28 04:21:38;;;;;;;21.80;13.43;;;13.90;99.90;;;;;;5045671;28;20469;-75
2023/09/28 04:24:05;;;;;;;15.97;11.77;;;13.90;99.90;;;;;;5038842;28;20452;-75
2023/09/28 04:26:32;;;;;;;23.47;13.47;;;13.90;99.90;;;;;;5045542;28;20458;-75
2023/09/28 04:28:59;;;;;;;19.50;12.50;;;13.90;99.90;;;;;;5044012;28;20423;-75
2023/09/28 04:31:27;;;;;;;19.13;12.87;;;13.90;99.90;;;;;;5043822;28;20507;-75
2023/09/28 04:33:55;;;;;;;25.17;15.43;;;13.90;99.90;;;;;;5041826;28;20480;-75
2023/09/28 04:36:22;;;;;;;18.23;13.33;;;14.00;99.90;;;;;;5038056;28;20443;-75
2023/09/28 04:38:49;;;;;;;19.67;14.10;;;14.00;99.90;;;;;;5045287;28;20445;-75
2023/09/28 04:41:17;;;;;;;27.03;14.90;;;14.00;99.90;;;;;;5038029;28;20432;-75
2023/09/28 04:43:44;;;;;;;22.60;17.37;;;14.00;99.90;;;;;;5040207;28;20482;-75
2023/09/28 04:46:10;;;;;;;29.23;16.47;;;14.00;99.90;;;;;;5042230;28;20489;-76
2023/09/28 04:48:38;;;;;;;32.83;19.17;;;14.00;99.90;;;;;;5045107;28;20423;-75
2023/09/28 04:51:05;;;;;;;31.47;17.77;;;14.00;99.90;;;;;;5043229;28;20431;-76
2023/09/28 04:53:32;;;;;;;30.77;17.57;;;14.00;99.90;;;;;;5043990;28;20471;-75
2023/09/28 04:55:58;;;;;;;31.87;19.37;;;14.00;99.90;;;;;;5037561;28;20474;-75
2023/09/28 04:58:25;;;;;;;40.23;21.07;;;14.10;99.90;;;;;;5042747;28;20561;-75
2023/09/28 05:00:52;;;;;;;42.77;21.60;;;14.00;99.90;;;;;;5044208;28;20471;-75
2023/09/28 05:03:19;;;;;;;39.67;23.60;;;14.00;99.90;;;;;;5035890;28;21030;-75
2023/09/28 05:05:47;;;;;;;40.97;24.20;;;13.90;99.90;;;;;;5043962;28;20508;-75
2023/09/28 05:08:13;;;;;;;45.93;23.70;;;13.90;99.90;;;;;;5034906;28;20438;-75
2023/09/28 05:10:40;;;;;;;45.30;25.13;;;13.90;99.90;;;;;;5039460;28;20460;-75
2023/09/28 05:13:07;;;;;;;44.17;24.43;;;13.90;99.90;;;;;;5034792;28;20452;-75
2023/09/28 05:15:33;;;;;;;40.37;22.50;;;13.90;99.90;;;;;;5042734;28;20857;-75
2023/09/28 05:18:00;;;;;;;39.53;22.83;;;13.80;99.90;;;;;;5035420;28;21008;-75
2023/09/28 05:20:27;;;;;;;47.87;24.07;;;13.70;99.90;;;;;;5042272;28;20449;-75
2023/09/28 05:22:55;;;;;;;51.10;24.40;;;13.60;99.90;;;;;;5041537;28;20460;-75
2023/09/28 05:25:22;;;;;;;48.40;26.20;;;13.60;99.90;;;;;;5041022;28;20480;-75
2023/09/28 05:27:49;;;;;;;67.47;26.83;;;13.60;99.90;;;;;;5043432;28;20575;-75
2023/09/28 05:30:16;;;;;;;75.53;27.00;;;13.60;99.90;;;;;;5037984;28;20461;-74
2023/09/28 05:32:43;;;;;;;64.77;28.43;;;13.60;99.90;;;;;;5042638;28;20918;-75
2023/09/28 05:35:10;;;;;;;56.27;28.67;;;13.60;99.90;;;;;;5040598;28;20452;-75
2023/09/28 05:37:37;;;;;;;99.17;27.73;;;13.60;99.90;;;;;;5043245;28;20444;-75
2023/09/28 05:40:06;;;;;;;86.90;28.10;;;13.80;99.90;;;;;;5037091;28;20487;-75
2023/09/28 05:42:34;;;;;;;150.27;30.10;;;13.70;99.90;;;;;;5038921;28;20436;-75
2023/09/28 05:45:01;;;;;;;100.57;27.97;;;13.60;99.90;;;;;;5037570;28;21033;-75
2023/09/28 05:47:27;;;;;;;108.47;28.80;;;13.70;99.90;;;;;;5039289;28;20580;-75
2023/09/28 05:49:54;;;;;;;121.43;28.90;;;13.70;99.90;;;;;;5040386;28;20452;-75
2023/09/28 05:52:22;;;;;;;125.80;28.00;;;13.60;99.90;;;;;;5037995;28;20480;-75
2023/09/28 05:54:49;;;;;;;114.13;28.90;;;13.60;99.90;;;;;;5041145;28;20457;-75
2023/09/28 05:57:19;;;;;;;96.40;28.73;;;13.50;99.90;;;;;;5034783;28;20477;-75
2023/09/28 05:59:46;;;;;;;60.83;27.37;;;13.60;99.90;;;;;;5042332;28;20418;-72
2023/09/28 06:02:14;;;;;;;74.03;27.37;;;13.50;99.90;;;;;;5038705;28;20881;-72
2023/09/28 06:04:41;;;;;;;51.87;27.67;;;13.50;99.90;;;;;;5037455;28;20448;-72
2023/09/28 06:07:09;;;;;;;57.87;26.80;;;13.50;99.90;;;;;;5039313;28;20835;-72
2023/09/28 06:09:36;;;;;;;66.17;27.10;;;13.60;99.90;;;;;;5041235;28;20960;-72
2023/09/28 06:12:03;;;;;;;58.20;26.53;;;13.60;99.90;;;;;;5039706;28;20538;-72
2023/09/28 06:14:31;;;;;;;56.53;27.17;;;13.60;99.90;;;;;;5040229;28;20449;-72
2023/09/28 06:16:58;;;;;;;80.50;27.43;;;13.60;99.90;;;;;;5037895;28;20877;-72
2023/09/28 06:19:25;;;;;;;83.33;29.07;;;13.60;99.90;;;;;;5038270;28;20460;-72
2023/09/28 06:21:52;;;;;;;106.53;29.00;;;13.70;99.90;;;;;;5039448;28;20464;-72
2023/09/28 06:24:19;;;;;;;152.53;28.80;;;13.70;99.90;;;;;;5036557;28;20518;-72
2023/09/28 06:26:45;;;;;;;309.47;31.57;;;13.60;99.90;;;;;;5030981;28;20572;-72
2023/09/28 06:29:12;;;;;;;141.70;29.10;;;13.60;99.90;;;;;;5034715;28;20442;-72
2023/09/28 06:31:41;;;;;;;57.03;30.37;;;13.60;99.90;;;;;;5026649;28;20503;-72
2023/09/28 06:34:08;;;;;;;67.83;29.80;;;13.60;99.90;;;;;;5025546;28;20468;-72
2023/09/28 06:36:35;;;;;;;136.07;27.70;;;13.70;99.90;;;;;;5029188;28;20437;-72
2023/09/28 06:39:03;;;;;;;92.90;31.00;;;13.70;99.90;;;;;;5037054;28;20945;-72
2023/09/28 06:41:30;;;;;;;151.50;31.50;;;13.80;99.90;;;;;;5030424;28;21056;-72
2023/09/28 06:43:57;;;;;;;129.70;29.03;;;13.80;99.90;;;;;;5027806;28;20473;-72
2023/09/28 06:46:23;;;;;;;117.50;28.10;;;13.90;99.90;;;;;;5028085;28;20458;-72
2023/09/28 06:48:51;;;;;;;209.50;29.10;;;14.00;99.90;;;;;;5032086;28;20438;-72
2023/09/28 06:51:19;;;;;;;55.53;28.90;;;14.00;99.90;;;;;;5028503;28;20461;-72
2023/09/28 06:53:46;;;;;;;113.53;29.83;;;14.00;99.90;;;;;;5031764;28;20507;-72
2023/09/28 06:56:13;;;;;;;188.33;30.63;;;14.00;99.90;;;;;;5035966;28;20866;-72
2023/09/28 06:58:39;;;;;;;140.83;29.30;;;14.00;99.90;;;;;;5042002;28;20509;-72
2023/09/28 07:01:06;;;;;;;85.53;29.57;;;14.00;99.90;;;;;;5037542;28;20993;-72
2023/09/28 07:03:32;;;;;;;159.33;30.40;;;14.00;99.90;;;;;;5034947;28;20443;-72
2023/09/28 07:06:01;;;;;;;88.43;32.83;;;14.00;99.90;;;;;;5034565;28;20469;-72
2023/09/28 07:08:27;;;;;;;101.20;30.90;;;14.10;99.90;;;;;;5035573;28;20612;-72
2023/09/28 07:10:54;;;;;;;180.80;32.60;;;14.10;99.90;;;;;;5041512;28;20431;-72
2023/09/28 07:13:21;;;;;;;180.20;33.47;;;14.10;99.90;;;;;;5032204;28;20531;-72
2023/09/28 07:15:47;;;;;;;138.23;35.07;;;14.10;99.90;;;;;;5029945;28;20484;-72
2023/09/28 07:18:14;;;;;;;76.67;32.77;;;14.20;99.90;;;;;;5035093;28;20551;-72
2023/09/28 07:20:40;;;;;;;61.13;34.27;;;14.20;99.90;;;;;;5034506;28;20979;-72
2023/09/28 07:23:08;;;;;;;109.30;34.70;;;14.30;99.90;;;;;;5029908;28;20466;-72
2023/09/28 07:25:35;;;;;;;64.50;33.90;;;14.30;99.90;;;;;;5035286;28;20480;-72
2023/09/28 07:28:02;;;;;;;60.23;32.07;;;14.30;99.90;;;;;;5033890;28;20538;-72
2023/09/28 07:30:30;;;;;;;73.67;33.67;;;14.40;99.90;;;;;;5033939;28;20435;-72
2023/09/28 07:32:57;;;;;;;116.70;34.33;;;14.50;99.90;;;;;;5043689;28;20447;-72
2023/09/28 07:35:23;;;;;;;57.20;33.43;;;14.60;99.90;;;;;;5037426;28;20452;-72
2023/09/28 07:37:50;;;;;;;65.50;34.33;;;14.60;99.90;;;;;;5038489;28;20445;-72
2023/09/28 07:40:24;;;;;;;60.20;34.30;;;14.70;99.90;;;;;;5030066;28;20474;-72
2023/09/28 07:42:51;;;;;;;56.87;35.83;;;14.80;99.90;;;;;;5033149;28;20476;-73
2023/09/28 07:45:18;;;;;;;53.17;33.57;;;15.10;99.90;;;;;;5030384;28;20519;-73
2023/09/28 07:47:45;;;;;;;51.77;31.47;;;15.30;99.90;;;;;;5039470;28;20558;-72
2023/09/28 07:50:14;;;;;;;47.20;31.10;;;15.30;99.90;;;;;;5033327;28;20439;-73
2023/09/28 07:52:41;;;;;;;64.10;32.97;;;15.40;99.90;;;;;;5038890;28;20523;-72
2023/09/28 07:55:08;;;;;;;47.93;30.17;;;15.50;99.90;;;;;;5038642;28;20419;-73
2023/09/28 07:57:36;;;;;;;48.10;31.20;;;15.70;99.90;;;;;;5038743;28;21679;-72
2023/09/28 08:00:06;;;;;;;48.23;30.50;;;16.10;99.90;;;;;;5039070;28;20844;-72
2023/09/28 08:02:33;;;;;;;48.97;32.20;;;16.60;99.90;;;;;;5038465;28;20439;-72
2023/09/28 08:05:01;;;;;;;38.97;27.63;;;17.00;99.90;;;;;;5038762;28;20979;-73
2023/09/28 08:07:30;;;;;;;36.67;26.00;;;17.60;99.90;;;;;;5036043;28;20496;-72
2023/09/28 08:09:57;;;;;;;42.50;27.23;;;18.20;99.90;;;;;;5036321;28;20980;-72
2023/09/28 08:12:24;;;;;;;39.50;26.23;;;18.80;99.90;;;;;;5035951;28;20484;-72
2023/09/28 08:14:52;;;;;;;39.13;25.57;;;19.30;99.90;;;;;;5037128;28;20494;-72
2023/09/28 08:17:20;;;;;;;29.60;22.97;;;19.70;99.90;;;;;;5039359;28;20542;-73
2023/09/28 08:19:46;;;;;;;36.80;23.50;;;20.10;99.90;;;;;;5039078;28;21059;-72
2023/09/28 08:22:13;;;;;;;30.07;22.07;;;20.50;99.90;;;;;;5038921;28;20514;-72
2023/09/28 08:24:40;;;;;;;33.73;22.27;;;20.90;99.90;;;;;;5038908;28;20453;-73
2023/09/28 08:27:06;;;;;;;30.30;23.30;;;21.20;99.90;;;;;;5038506;28;20622;-72
2023/09/28 08:29:34;;;;;;;38.40;21.37;;;21.50;99.90;;;;;;5039316;28;20452;-72
2023/09/28 08:32:02;;;;;;;29.70;22.40;;;21.80;99.90;;;;;;5039087;28;20468;-72
2023/09/28 08:34:29;;;;;;;35.10;22.20;;;21.90;99.90;;;;;;5038609;28;20450;-73
2023/09/28 08:36:56;;;;;;;33.10;22.37;;;21.90;99.90;;;;;;5038276;28;20437;-72
2023/09/28 08:39:22;;;;;;;30.83;20.73;;;22.00;99.90;;;;;;5039447;28;20472;-73
2023/09/28 08:41:55;;;;;;;27.83;20.83;;;22.20;99.90;;;;;;5039005;28;20490;-73
2023/09/28 08:44:26;;;;;;;32.97;22.20;;;22.20;99.90;;;;;;5038920;28;20486;-72
2023/09/28 08:46:58;;;;;;;31.57;21.50;;;22.10;99.90;;;;;;5038906;28;20488;-73
2023/09/28 08:49:27;;;;;;;25.70;19.40;;;22.30;99.90;;;;;;5038551;28;20947;-73
2023/09/28 08:51:55;;;;;;;32.17;21.07;;;22.50;99.90;;;;;;5038328;28;20534;-72
2023/09/28 08:54:23;;;;;;;26.20;19.53;;;22.80;99.90;;;;;;5037225;28;20502;-73
2023/09/28 08:56:52;;;;;;;31.43;20.37;;;22.90;99.90;;;;;;5037270;28;20510;-73
2023/09/28 08:59:20;;;;;;;24.80;19.03;;;23.10;99.90;;;;;;5036452;28;20437;-73
2023/09/28 09:01:47;;;;;;;26.33;18.57;;;23.50;99.90;;;;;;5035828;28;20453;-73
2023/09/28 09:04:14;;;;;;;24.67;18.73;;;23.70;99.90;;;;;;5036554;28;20504;-73
2023/09/28 09:06:43;;;;;;;24.57;18.07;;;23.80;99.90;;;;;;5036831;28;20554;-73
2023/09/28 09:09:15;;;;;;;29.17;18.03;;;23.90;99.90;;;;;;5040321;28;20520;-73
2023/09/28 09:11:50;;;;;;;29.83;19.70;;;24.00;99.90;;;;;;5037705;28;20542;-73
2023/09/28 09:14:16;;;;;;;24.20;18.60;;;24.00;99.90;;;;;;5037869;28;20441;-72
2023/09/28 09:16:43;;;;;;;38.83;18.67;;;23.90;99.90;;;;;;5038315;28;20449;-72
2023/09/28 09:19:14;;;;;;;27.37;17.50;;;24.00;99.90;;;;;;5038392;28;20449;-73
2023/09/28 09:21:43;;;;;;;26.23;19.27;;;24.10;99.90;;;;;;5037623;28;20437;-73
2023/09/28 09:24:14;;;;;;;28.50;18.20;;;24.00;99.90;;;;;;5037502;28;20449;-73
2023/09/28 09:26:42;;;;;;;27.97;18.63;;;24.00;99.90;;;;;;5038631;28;20958;-73
2023/09/28 09:29:10;;;;;;;24.03;16.33;;;24.20;99.90;;;;;;5039198;28;20456;-73
2023/09/28 09:31:39;;;;;;;21.17;17.53;;;24.30;99.90;;;;;;5038216;28;20438;-73
2023/09/28 09:34:06;;;;;;;21.37;16.30;;;24.60;99.90;;;;;;5037897;28;20930;-73
2023/09/28 09:36:33;;;;;;;22.37;16.57;;;24.70;99.90;;;;;;5037981;28;20448;-73
2023/09/28 09:39:01;;;;;;;27.90;17.83;;;24.70;99.90;;;;;;5037656;28;20445;-73
2023/09/28 09:41:29;;;;;;;26.93;17.17;;;24.90;99.90;;;;;;5037502;28;20445;-73
2023/09/28 09:43:59;;;;;;;25.73;17.93;;;25.10;99.90;;;;;;5037821;28;20457;-73
2023/09/28 09:46:26;;;;;;;21.60;16.53;;;25.20;99.90;;;;;;5037530;28;20460;-73
2023/09/28 09:48:54;;;;;;;23.33;16.70;;;25.40;99.90;;;;;;5037949;28;20510;-73
2023/09/28 09:51:21;;;;;;;18.77;15.80;;;25.60;99.90;;;;;;5037078;28;21007;-73
2023/09/28 09:53:48;;;;;;;16.43;13.67;;;26.00;99.90;;;;;;5037542;28;20526;-73
2023/09/28 09:56:16;;;;;;;15.57;13.17;;;26.00;99.90;;;;;;5037368;28;20453;-73
2023/09/28 09:58:48;;;;;;;20.37;14.37;;;25.80;99.90;;;;;;5037694;28;20511;-73
2023/09/28 10:01:16;;;;;;;18.47;14.37;;;25.50;99.90;;;;;;5037158;28;20449;-73
2023/09/28 10:03:46;;;;;;;16.17;12.60;;;25.50;99.90;;;;;;5037774;28;20484;-73
2023/09/28 10:06:15;;;;;;;17.13;13.90;;;25.50;99.90;;;;;;5037113;28;20460;-73
2023/09/28 10:08:42;;;;;;;19.53;14.60;;;25.30;99.90;;;;;;5037187;28;20494;-73
2023/09/28 10:11:09;;;;;;;23.80;14.77;;;25.10;99.90;;;;;;5036652;28;21086;-73
2023/09/28 10:13:37;;;;;;;16.50;13.57;;;24.90;99.90;;;;;;5036592;28;20480;-73
2023/09/28 10:16:05;;;;;;;16.90;14.23;;;24.80;99.90;;;;;;5037175;28;20930;-73
2023/09/28 10:18:35;;;;;;;15.97;13.10;;;24.90;99.90;;;;;;5037465;28;20862;-73
2023/09/28 10:21:03;;;;;;;17.52;11.60;;;24.70;99.90;;;;;;5035535;28;20527;-73
2023/09/28 10:23:31;;;;;;;18.87;14.40;;;24.90;99.90;;;;;;5037506;28;20230;-73
2023/09/28 10:25:58;;;;;;;16.27;11.60;;;24.80;99.90;;;;;;5039286;28;20493;-73
2023/09/28 10:28:25;;;;;;;15.60;12.00;;;25.00;99.90;;;;;;5040634;28;21286;-73
2023/09/28 10:31:09;;;;;;;21.57;12.17;;;25.30;99.90;;;;;;5040892;28;20870;-73
2023/09/28 10:33:36;;;;;;;17.70;12.03;;;25.50;99.90;;;;;;5040596;28;20465;-73
2023/09/28 10:36:12;;;;;;;20.83;11.57;;;25.50;99.90;;;;;;5041260;28;20456;-73
2023/09/28 10:38:41;;;;;;;16.80;13.83;;;25.30;99.90;;;;;;5040843;28;20991;-74
2023/09/28 10:41:08;;;;;;;21.97;11.80;;;25.40;99.90;;;;;;5041129;28;20499;-73
2023/09/28 10:43:38;;;;;;;20.47;14.37;;;25.60;99.90;;;;;;5040438;28;21759;-73
2023/09/28 10:46:08;;;;;;;21.05;11.32;;;25.80;99.90;;;;;;5040407;28;20441;-73
2023/09/28 10:48:39;;;;;;;15.37;11.30;;;26.00;99.90;;;;;;5040788;28;20226;-73
2023/09/28 10:51:10;;;;;;;15.00;10.00;;;26.00;99.90;;;;;;5040884;28;20804;-73
2023/09/28 10:53:36;;;;;;;14.67;10.20;;;26.20;99.90;;;;;;5041035;28;20472;-74
2023/09/28 10:56:05;;;;;;;18.47;10.23;;;26.20;99.90;;;;;;5040723;28;20437;-74
2023/09/28 10:58:33;;;;;;;16.57;9.93;;;26.40;99.90;;;;;;5040464;28;20959;-73
2023/09/28 11:01:04;;;;;;;14.83;10.50;;;26.20;99.90;;;;;;5040350;28;20440;-74
2023/09/28 11:03:33;;;;;;;11.30;8.80;;;26.10;99.90;;;;;;5040821;28;20476;-73
2023/09/28 11:06:00;;;;;;;15.23;9.17;;;26.20;99.90;;;;;;5040635;28;20445;-73
2023/09/28 11:08:27;;;;;;;10.10;7.70;;;26.40;99.90;;;;;;5040864;28;20492;-73
2023/09/28 11:10:55;;;;;;;10.10;7.83;;;26.50;99.90;;;;;;5040246;28;20464;-73
2023/09/28 11:13:22;;;;;;;10.70;8.43;;;26.80;99.90;;;;;;5039962;28;20555;-73
2023/09/28 11:15:49;;;;;;;13.33;8.23;;;26.80;99.90;;;;;;5040617;28;20445;-73
2023/09/28 11:18:17;;;;;;;12.63;7.13;;;26.50;99.90;;;;;;5040644;28;20535;-73
2023/09/28 11:20:45;;;;;;;8.73;6.20;;;26.40;99.90;;;;;;5040419;28;20448;-73
2023/09/28 11:23:12;;;;;;;10.53;7.60;;;26.50;99.90;;;;;;5040101;28;20472;-73
2023/09/28 11:25:39;;;;;;;8.00;7.20;;;26.30;99.90;;;;;;5040251;28;20849;-73
2023/09/28 11:28:07;;;;;;;8.30;7.43;;;26.00;99.90;;;;;;5040127;28;20549;-73
2023/09/28 11:30:33;;;;;;;12.83;7.03;;;25.70;99.90;;;;;;5040618;28;20436;-73
2023/09/28 11:33:04;;;;;;;10.07;6.37;;;25.70;99.90;;;;;;5040352;28;20484;-73
2023/09/28 11:35:32;;;;;;;14.40;5.47;;;25.70;99.90;;;;;;5040304;28;20449;-73
2023/09/28 11:38:02;;;;;;;7.37;5.37;;;25.50;99.90;;;;;;5039265;28;20518;-73
2023/09/28 11:40:30;;;;;;;6.43;5.30;;;25.30;99.90;;;;;;5040331;28;20466;-73
2023/09/28 11:42:58;;;;;;;10.00;5.30;;;25.40;99.90;;;;;;5039837;28;20484;-73
2023/09/28 11:45:28;;;;;;;6.63;5.07;;;25.60;99.90;;;;;;5038798;28;20450;-73
2023/09/28 11:47:55;;;;;;;8.57;5.47;;;25.50;99.90;;;;;;5039855;28;20539;-73
2023/09/28 11:50:23;;;;;;;6.27;5.60;;;25.40;99.90;;;;;;5039724;28;20444;-73
2023/09/28 11:52:51;;;;;;;9.27;5.50;;;25.70;99.90;;;;;;5039341;28;20560;-73
2023/09/28 11:55:20;;;;;;;7.13;5.70;;;25.80;99.90;;;;;;5040278;28;20444;-74
2023/09/28 11:57:48;;;;;;;6.93;4.90;;;26.00;99.90;;;;;;5040012;28;20949;-73
2023/09/28 12:00:18;;;;;;;5.20;4.70;;;26.20;99.90;;;;;;5039841;28;20803;-73
2023/09/28 12:02:46;;;;;;;7.77;5.73;;;26.30;99.90;;;;;;5039420;28;20492;-74
2023/09/28 12:05:12;;;;;;;9.63;5.13;;;26.50;99.90;;;;;;5038308;28;20537;-74
2023/09/28 12:07:40;;;;;;;9.63;5.90;;;26.70;99.90;;;;;;5038318;28;20488;-74
2023/09/28 12:10:08;;;;;;;8.57;5.40;;;26.80;99.90;;;;;;5039541;28;20837;-74
2023/09/28 12:12:37;;;;;;;5.60;5.10;;;26.80;99.90;;;;;;5039271;28;20559;-74
2023/09/28 12:15:06;;;;;;;8.90;5.50;;;27.00;99.90;;;;;;5039348;28;21001;-74
2023/09/28 12:17:33;;;;;;;10.40;5.57;;;27.10;99.90;;;;;;5039367;28;20477;-73
2023/09/28 12:20:00;;;;;;;9.63;4.87;;;27.20;99.90;;;;;;5038774;28;20461;-73
2023/09/28 12:22:26;;;;;;;6.10;5.33;;;27.30;99.90;;;;;;5039518;28;20477;-73
2023/09/28 12:24:55;;;;;;;5.63;4.80;;;27.10;99.90;;;;;;5039576;28;20506;-73
2023/09/28 12:27:23;;;;;;;5.70;4.80;;;26.90;99.90;;;;;;5039603;28;20463;-74
2023/09/28 12:29:51;;;;;;;7.77;5.40;;;26.90;99.90;;;;;;5039529;28;20829;-73